Time;durP1;ratioP1;P1;durP2;ratioP2;P2;SDS_P1;SDS_P2;PMS_P1;PMS_P2;Temp;Humidity;BMP_temperature;BMP_pressure;BME280_temperature;BME280_humidity;BME280_pressure;Samples;Min_cycle;Max_cycle;Signal;HPM_P1;HPM_P2
2023/02/08 00:02:19;;;;;;;;;;;;;;;;;;4999119;28;20057;-80
2023/02/08 00:04:47;;;;;;;11.25;5.55;;;;;;;;;;5023312;28;19921;-81
2023/02/08 00:07:15;;;;;;;11.73;6.03;;;;;;;;;;5012907;28;20072;-81
2023/02/08 00:09:49;;;;;;;10.13;6.05;;;;;;;;;;5006943;28;20044;-80
2023/02/08 00:12:22;;;;;;;16.35;6.38;;;;;;;;;;4999662;28;20058;-81
2023/02/08 00:14:55;;;;;;;9.02;5.35;;;;;;;;;;5005391;28;20057;-81
2023/02/08 00:17:22;;;;;;;;;;;;;;;;;;4996329;28;20534;-81
2023/02/08 00:19:55;;;;;;;11.88;4.72;;;;;;;;;;4999919;28;19929;-81
2023/02/08 00:22:28;;;;;;;10.85;5.68;;;;;;;;;;4997008;28;20046;-81
2023/02/08 00:25:02;;;;;;;12.73;6.20;;;;;;;;;;4997039;28;21048;-81
2023/02/08 00:27:35;;;;;;;9.48;4.82;;;;;;;;;;5006617;28;20053;-81
2023/02/08 00:30:03;;;;;;;9.02;5.05;;;;;;;;;;4995533;28;20518;-80
2023/02/08 00:32:31;;;;;;;;;;;;;;;;;;5008246;28;20046;-80
2023/02/08 00:35:03;;;;;;;;;;;;;;;;;;5032695;28;19921;-81
2023/02/08 00:37:31;;;;;;;;;;;;;;;;;;5018846;28;19921;-80
2023/02/08 00:40:01;;;;;;;;;;;;;;;;;;5036623;28;20401;-81
2023/02/08 00:42:33;;;;;;;;;;;;;;;;;;5026158;28;19933;-81
2023/02/08 00:45:01;;;;;;;;;;;;;;;;;;5021133;28;19922;-80
2023/02/08 00:47:28;;;;;;;;;;;;;;;;;;5008559;28;19937;-82
2023/02/08 00:49:56;;;;;;;;;;;;;;;;;;5024567;28;19921;-82
2023/02/08 00:52:24;;;;;;;;;;;;;;;;;;5025157;28;19929;-81
2023/02/08 00:54:51;;;;;;;;;;;;;;;;;;5026301;28;19929;-81
2023/02/08 00:57:19;;;;;;;;;;;;;;;;;;5022044;28;19922;-81
2023/02/08 00:59:46;;;;;;;;;;;;;;;;;;5023991;28;19944;-81
2023/02/08 01:02:15;;;;;;;;;;;;;;;;;;5023270;28;19928;-81
2023/02/08 01:04:42;;;;;;;;;;;;;;;;;;5019253;28;20399;-80
2023/02/08 01:07:15;;;;;;;;;;;;;;;;;;5032189;28;19922;-82
2023/02/08 01:09:42;;;;;;;;;;;;;;;;;;5031725;28;20325;-81
2023/02/08 01:12:10;;;;;;;;;;;;;;;;;;5020555;28;19922;-80
2023/02/08 01:14:42;;;;;;;;;;;;;;;;;;5016609;28;19925;-81
2023/02/08 01:17:10;;;;;;;;;;;;;;;;;;5024292;28;19922;-80
2023/02/08 01:19:37;;;;;;;;;;;;;;;;;;5031680;28;20412;-81
2023/02/08 01:22:05;;;;;;;;;;;;;;;;;;5020067;28;19921;-81
2023/02/08 01:24:32;;;;;;;;;;;;;;;;;;5028541;28;20386;-80
2023/02/08 01:27:00;;;;;;;;;;;;;;;;;;5034871;28;19925;-82
2023/02/08 01:29:29;;;;;;;;;;;;;;;;;;5019559;28;19929;-81
2023/02/08 01:31:57;;;;;;;;;;;;;;;;;;5009971;28;19926;-81
2023/02/08 01:34:24;;;;;;;;;;;;;;;;;;5004897;28;19922;-82
2023/02/08 01:36:57;;;;;;;;;;;;;;;;;;5014310;28;19928;-80
2023/02/08 01:39:29;;;;;;;;;;;;;;;;;;5011145;28;19921;-81
2023/02/08 01:41:57;;;;;;;;;;;;;;;;;;5023619;28;19921;-81
2023/02/08 01:44:29;;;;;;;;;;;;;;;;;;5015798;28;19929;-81
2023/02/08 01:46:57;;;;;;;;;;;;;;;;;;5038758;28;20404;-82
2023/02/08 01:49:24;;;;;;;;;;;;;;;;;;5010976;28;19925;-81
2023/02/08 01:51:52;;;;;;;;;;;;;;;;;;5010763;28;19921;-81
2023/02/08 01:54:26;;;;;;;;;;;;;;;;;;5012332;28;19922;-81
2023/02/08 01:56:53;;;;;;;;;;;;;;;;;;5009381;28;19926;-81
2023/02/08 01:59:26;;;;;;;;;;;;;;;;;;5018578;28;19921;-81
2023/02/08 02:01:53;;;;;;;;;;;;;;;;;;5010744;28;19926;-82
2023/02/08 02:04:26;;;;;;;;;;;;;;;;;;5032206;28;19928;-80
2023/02/08 02:07:00;;;;;;;;;;;;;;;;;;5002328;28;20683;-81
2023/02/08 02:09:27;;;;;;;;;;;;;;;;;;5023847;28;19925;-82
2023/02/08 02:11:55;;;;;;;;;;;;;;;;;;5001581;28;19925;-80
2023/02/08 02:14:24;;;;;;;;;;;;;;;;;;5020516;28;19921;-80
2023/02/08 02:16:51;;;;;;;;;;;;;;;;;;5032149;28;20036;-80
2023/02/08 02:19:19;;;;;;;;;;;;;;;;;;5024599;28;19921;-80
2023/02/08 02:21:46;;;;;;;;;;;;;;;;;;5011376;28;19932;-80
2023/02/08 02:24:14;;;;;;;;;;;;;;;;;;5015464;28;19932;-81
2023/02/08 02:26:41;;;;;;;;;;;;;;;;;;5008210;28;19922;-81
2023/02/08 02:29:14;;;;;;;;;;;;;;;;;;5019502;28;19932;-80
2023/02/08 02:31:46;;;;;;;;;;;;;;;;;;5013495;28;19947;-80
2023/02/08 02:34:19;;;;;;;;;;;;;;;;;;5019847;28;20385;-81
2023/02/08 02:36:47;;;;;;;;;;;;;;;;;;5002238;28;20390;-81
2023/02/08 02:39:14;;;;;;;;;;;;;;;;;;5021475;28;19925;-80
2023/02/08 02:44:32;;;;;;;;;;;;;;;;;;5006575;28;19921;-81
2023/02/08 02:47:00;;;;;;;;;;;;;;;;;;5015480;28;20660;-81
2023/02/08 02:49:28;;;;;;;;;;;;;;;;;;5025449;28;19921;-80
2023/02/08 02:52:00;;;;;;;;;;;;;;;;;;5017897;28;19921;-80
2023/02/08 02:54:28;;;;;;;;;;;;;;;;;;5007698;28;19921;-80
2023/02/08 02:57:00;;;;;;;;;;;;;;;;;;5001259;28;20263;-80
2023/02/08 02:59:28;;;;;;;;;;;;;;;;;;5015523;28;19941;-81
2023/02/08 03:01:55;;;;;;;;;;;;;;;;;;4994464;28;19929;-82
2023/02/08 03:04:28;;;;;;;;;;;;;;;;;;5010107;28;19928;-81
2023/02/08 03:06:55;;;;;;;;;;;;;;;;;;5023681;28;19921;-81
2023/02/08 03:09:23;;;;;;;;;;;;;;;;;;5008422;28;19921;-81
2023/02/08 03:11:50;;;;;;;;;;;;;;;;;;5009329;28;19921;-82
2023/02/08 03:14:18;;;;;;;;;;;;;;;;;;5029696;28;19921;-80
2023/02/08 03:16:50;;;;;;;;;;;;;;;;;;5014947;28;19921;-80
2023/02/08 03:19:18;;;;;;;;;;;;;;;;;;5016013;28;19928;-80
2023/02/08 03:21:45;;;;;;;;;;;;;;;;;;5030466;28;20390;-81
2023/02/08 03:24:13;;;;;;;;;;;;;;;;;;5021571;28;19929;-80
2023/02/08 03:26:45;;;;;;;;;;;;;;;;;;5009338;28;19925;-80
2023/02/08 03:29:18;;;;;;;;;;;;;;;;;;5017685;28;19921;-81
2023/02/08 03:31:46;;;;;;;;;;;;;;;;;;5006003;28;19929;-81
2023/02/08 03:34:13;;;;;;;;;;;;;;;;;;5019542;28;19929;-81
2023/02/08 03:36:41;;;;;;;;;;;;;;;;;;5013486;28;19928;-80
2023/02/08 03:39:13;;;;;;;;;;;;;;;;;;5031752;28;20600;-80
2023/02/08 03:41:41;;;;;;;;;;;;;;;;;;5012427;28;20302;-80
2023/02/08 03:44:09;;;;;;;;;;;;;;;;;;5012904;28;19922;-81
2023/02/08 03:46:41;;;;;;;;;;;;;;;;;;5021149;28;19992;-80
2023/02/08 03:49:09;;;;;;;;;;;;;;;;;;5019665;28;20302;-80
2023/02/08 03:51:37;;;;;;;;;;;;;;;;;;5019122;28;19921;-80
2023/02/08 03:54:10;;;;;;;;;;;;;;;;;;5020573;28;19929;-79
2023/02/08 03:56:37;;;;;;;;;;;;;;;;;;5017272;28;19928;-80
2023/02/08 03:59:05;;;;;;;;;;;;;;;;;;5005844;28;19926;-81
2023/02/08 04:01:35;;;;;;;;;;;;;;;;;;5002933;28;19920;-81
2023/02/08 04:04:02;;;;;;;;;;;;;;;;;;5032276;28;20465;-81
2023/02/08 04:06:35;;;;;;;;;;;;;;;;;;5009176;28;20293;-80
2023/02/08 04:09:02;;;;;;;;;;;;;;;;;;5011192;28;19922;-80
2023/02/08 04:11:35;;;;;;;;;;;;;;;;;;5003465;28;20354;-80
2023/02/08 04:14:02;;;;;;;;;;;;;;;;;;5008630;28;20297;-81
2023/02/08 04:16:35;;;;;;;;;;;;;;;;;;5028051;28;19932;-80
2023/02/08 04:19:02;;;;;;;;;;;;;;;;;;5006348;28;20406;-81
2023/02/08 04:21:35;;;;;;;;;;;;;;;;;;5035300;28;19925;-81
2023/02/08 04:24:03;;;;;;;;;;;;;;;;;;5005984;28;19925;-80
2023/02/08 04:26:30;;;;;;;;;;;;;;;;;;5029909;28;19929;-81
2023/02/08 04:29:03;;;;;;;;;;;;;;;;;;5017416;28;20370;-80
2023/02/08 04:31:35;;;;;;;;;;;;;;;;;;5016604;28;19926;-80
2023/02/08 04:34:08;;;;;;;;;;;;;;;;;;5030026;28;19922;-81
2023/02/08 04:36:35;;;;;;;;;;;;;;;;;;5001230;28;20322;-80
2023/02/08 04:39:03;;;;;;;;;;;;;;;;;;5030235;28;19925;-80
2023/02/08 04:41:30;;;;;;;;;;;;;;;;;;5016602;28;19921;-81
2023/02/08 04:43:58;;;;;;;;;;;;;;;;;;5023540;28;20378;-80
2023/02/08 04:46:25;;;;;;;;;;;;;;;;;;5023731;28;19940;-80
2023/02/08 04:48:53;;;;;;;;;;;;;;;;;;5011777;28;19921;-81
2023/02/08 04:51:25;;;;;;;;;;;;;;;;;;5009052;28;19941;-81
2023/02/08 04:53:58;;;;;;;;;;;;;;;;;;5000086;28;19928;-80
2023/02/08 04:56:30;;;;;;;;;;;;;;;;;;5009873;28;19924;-80
2023/02/08 04:58:58;;;;;;;;;;;;;;;;;;5029012;28;19928;-80
2023/02/08 05:01:25;;;;;;;;;;;;;;;;;;5011460;28;19993;-80
2023/02/08 05:03:53;;;;;;;;;;;;;;;;;;5020789;28;19922;-80
2023/02/08 05:06:21;;;;;;;;;;;;;;;;;;5019486;28;19926;-81
2023/02/08 05:08:48;;;;;;;;;;;;;;;;;;5018151;28;19921;-81
2023/02/08 05:11:16;;;;;;;;;;;;;;;;;;5014313;28;19933;-80
2023/02/08 05:13:45;;;;;;;14.20;5.73;;;;;;;;;;5012110;28;19925;-80
2023/02/08 05:16:18;;;;;;;16.10;6.63;;;;;;;;;;5024062;28;20301;-80
2023/02/08 05:18:45;;;;;;;;;;;;;;;;;;5004259;28;20061;-81
2023/02/08 05:21:13;;;;;;;;;;;;;;;;;;5026634;28;20301;-81
2023/02/08 05:23:41;;;;;;;9.25;4.47;;;;;;;;;;5020346;28;19989;-80
2023/02/08 05:26:08;;;;;;;;;;;;;;;;;;5021112;28;20045;-80
2023/02/08 05:28:41;;;;;;;10.35;5.88;;;;;;;;;;5022759;28;19925;-80
2023/02/08 05:31:17;;;;;;;12.55;6.43;;;;;;;;;;5017284;28;20061;-80
2023/02/08 05:33:45;;;;;;;19.38;10.07;;;;;;;;;;5010979;28;20487;-80
2023/02/08 05:36:18;;;;;;;15.15;8.07;;;;;;;;;;5006292;28;20054;-80
2023/02/08 05:38:52;;;;;;;18.23;7.00;;;;;;;;;;5034326;28;20522;-81
2023/02/08 05:41:25;;;;;;;13.25;6.65;;;;;;;;;;5010079;28;20515;-80
2023/02/08 05:43:52;;;;;;;;;;;;;;;;;;5015644;28;20045;-80
2023/02/08 05:46:21;;;;;;;12.05;5.60;;;;;;;;;;5000059;28;19922;-81
2023/02/08 05:48:49;;;;;;;10.80;5.68;;;;;;;;;;5018458;28;20049;-81
2023/02/08 05:51:17;;;;;;;;;;;;;;;;;;5002149;28;20065;-80
2023/02/08 05:53:44;;;;;;;14.43;6.75;;;;;;;;;;5016193;28;20297;-81
2023/02/08 05:56:12;;;;;;;;;;;;;;;;;;5010864;28;20054;-81
2023/02/08 05:58:40;;;;;;;6.40;4.43;;;;;;;;;;5014218;28;20381;-81
2023/02/08 06:01:13;;;;;;;10.00;5.50;;;;;;;;;;5012674;28;20057;-81
2023/02/08 06:03:47;;;;;;;12.38;7.03;;;;;;;;;;4998675;28;20385;-80
2023/02/08 06:06:20;;;;;;;13.52;6.65;;;;;;;;;;5009957;28;20053;-80
2023/02/08 06:08:53;;;;;;;12.60;6.90;;;;;;;;;;5011398;28;20057;-81
2023/02/08 06:11:21;;;;;;;;;;;;;;;;;;5011486;28;20046;-80
2023/02/08 06:13:53;;;;;;;13.80;5.50;;;;;;;;;;5012908;28;19921;-80
2023/02/08 06:16:21;;;;;;;;;;;;;;;;;;5025159;28;20426;-81
2023/02/08 06:18:50;;;;;;;23.95;7.35;;;;;;;;;;5025638;28;19921;-80
2023/02/08 06:21:18;;;;;;;14.93;7.10;;;;;;;;;;5013858;28;20057;-80
2023/02/08 06:23:46;;;;;;;10.38;5.40;;;;;;;;;;5023366;28;20041;-80
2023/02/08 06:26:13;;;;;;;14.38;7.40;;;;;;;;;;5009687;28;20062;-80
2023/02/08 06:28:41;;;;;;;14.45;6.82;;;;;;;;;;5010656;28;20050;-80
2023/02/08 06:31:14;;;;;;;11.25;5.28;;;;;;;;;;5004219;28;20050;-81
2023/02/08 06:33:47;;;;;;;22.27;6.65;;;;;;;;;;5004802;28;20049;-81
2023/02/08 06:36:21;;;;;;;12.77;6.03;;;;;;;;;;5007134;28;20042;-81
2023/02/08 06:38:48;;;;;;;19.75;8.13;;;;;;;;;;5006960;28;20398;-81
2023/02/08 06:41:16;;;;;;;;;;;;;;;;;;5012888;28;20054;-83
2023/02/08 06:43:44;;;;;;;11.85;5.40;;;;;;;;;;5000827;28;19921;-80
2023/02/08 06:46:16;;;;;;;13.48;7.10;;;;;;;;;;5020560;28;20054;-84
2023/02/08 06:48:49;;;;;;;17.75;6.75;;;;;;;;;;5011686;28;20046;-80
2023/02/08 06:51:23;;;;;;;16.02;7.45;;;;;;;;;;5009843;28;20042;-80
2023/02/08 06:53:51;;;;;;;14.70;7.57;;;;;;;;;;5019500;28;20053;-81
2023/02/08 06:56:24;;;;;;;13.35;7.70;;;;;;;;;;5012948;28;20528;-81
2023/02/08 06:58:52;;;;;;;17.80;7.47;;;;;;;;;;5012601;28;20062;-80
2023/02/08 07:01:20;;;;;;;;;;;;;;;;;;5012425;28;20518;-82
2023/02/08 07:03:47;;;;;;;18.15;8.27;;;;;;;;;;5008555;28;19921;-82
2023/02/08 07:06:20;;;;;;;15.70;6.70;;;;;;;;;;5005386;28;20053;-80
2023/02/08 07:08:54;;;;;;;14.75;6.22;;;;;;;;;;5012099;28;20676;-80
2023/02/08 07:11:22;;;;;;;16.23;6.53;;;;;;;;;;5008134;28;20041;-81
2023/02/08 07:13:55;;;;;;;16.85;7.18;;;;;;;;;;5006927;28;20042;-81
2023/02/08 07:16:23;;;;;;;;;;;;;;;;;;5007645;28;20061;-80
2023/02/08 07:18:51;;;;;;;9.43;6.45;;;;;;;;;;5007916;28;19921;-81
2023/02/08 07:21:23;;;;;;;18.05;7.18;;;;;;;;;;5008873;28;20055;-79
2023/02/08 07:23:51;;;;;;;17.33;7.55;;;;;;;;;;5009242;28;20044;-81
2023/02/08 07:26:20;;;;;;;8.57;5.90;;;;;;;;;;5001818;28;20049;-81
2023/02/08 07:28:53;;;;;;;12.73;7.07;;;;;;;;;;5005868;28;20065;-83
2023/02/08 07:31:26;;;;;;;16.60;8.80;;;;;;;;;;5006295;28;20050;-80
2023/02/08 07:33:54;;;;;;;;;;;;;;;;;;5008951;28;20069;-81
2023/02/08 07:36:21;;;;;;;;;;;;;;;;;;5007542;28;19925;-81
2023/02/08 07:38:49;;;;;;;15.20;6.60;;;;;;;;;;5004018;28;19929;-82
2023/02/08 07:41:16;;;;;;;16.48;7.63;;;;;;;;;;5015402;28;20050;-81
2023/02/08 07:43:44;;;;;;;;;;;;;;;;;;5013475;28;20045;-84
2023/02/08 07:46:14;;;;;;;12.07;6.95;;;;;;;;;;5007382;28;19928;-82
2023/02/08 07:48:42;;;;;;;15.50;7.35;;;;;;;;;;5015503;28;20054;-82
2023/02/08 07:51:15;;;;;;;16.95;8.02;;;;;;;;;;4997836;28;20068;-84
2023/02/08 07:53:48;;;;;;;20.27;8.85;;;;;;;;;;4997285;28;20054;-85
2023/02/08 07:56:16;;;;;;;;;;;;;;;;;;5003082;28;20050;-85
2023/02/08 07:58:49;;;;;;;13.20;5.88;;;;;;;;;;5004407;28;19933;-85
2023/02/08 08:01:16;;;;;;;;;;;;;;;;;;5000618;28;20069;-83
2023/02/08 08:03:45;;;;;;;11.02;5.30;;;;;;;;;;5012501;28;19925;-83
2023/02/08 08:06:18;;;;;;;15.68;8.10;;;;;;;;;;4998192;28;20056;-83
2023/02/08 08:08:52;;;;;;;16.23;6.93;;;;;;;;;;5000759;28;20054;-81
2023/02/08 08:11:21;;;;;;;12.20;6.65;;;;;;;;;;4998947;28;20049;-81
2023/02/08 08:13:54;;;;;;;10.73;6.55;;;;;;;;;;5001565;28;20050;-83
2023/02/08 08:16:22;;;;;;;20.00;8.18;;;;;;;;;;5016546;28;20064;-85
2023/02/08 08:18:56;;;;;;;14.88;8.00;;;;;;;;;;5020588;28;20724;-83
2023/02/08 08:21:24;;;;;;;8.40;5.00;;;;;;;;;;4991950;28;20076;-84
2023/02/08 08:23:54;;;;;;;;;;;;;;;;;;4997401;28;20053;-83
2023/02/08 08:26:21;;;;;;;12.38;6.00;;;;;;;;;;5002681;28;19932;-81
2023/02/08 08:28:49;;;;;;;14.32;6.90;;;;;;;;;;5001525;28;20058;-83
2023/02/08 08:31:22;;;;;;;12.70;7.00;;;;;;;;;;4995411;28;20064;-85
2023/02/08 08:33:56;;;;;;;11.77;6.55;;;;;;;;;;4990547;28;20418;-84
2023/02/08 08:36:24;;;;;;;15.88;8.43;;;;;;;;;;4998204;28;20066;-83
2023/02/08 08:38:52;;;;;;;14.65;7.97;;;;;;;;;;4997300;28;20442;-84
2023/02/08 08:41:26;;;;;;;20.08;7.53;;;;;;;;;;5000463;28;20062;-83
2023/02/08 08:43:53;;;;;;;17.48;7.95;;;;;;;;;;5006317;28;20073;-81
2023/02/08 08:46:26;;;;;;;18.17;8.05;;;;;;;;;;5000609;28;21047;-82
2023/02/08 08:48:54;;;;;;;;;;;;;;;;;;5003555;28;20721;-82
2023/02/08 08:51:23;;;;;;;13.38;6.53;;;;;;;;;;5015789;28;19936;-83
2023/02/08 08:53:51;;;;;;;19.92;7.45;;;;;;;;;;5001045;28;20061;-84
2023/02/08 08:56:19;;;;;;;;;;;;;;;;;;5010385;28;20049;-82
2023/02/08 08:58:46;;;;;;;22.23;7.45;;;;;;;;;;5012776;28;19937;-82
2023/02/08 09:01:19;;;;;;;18.98;7.07;;;;;;;;;;5002391;28;20068;-84
2023/02/08 09:03:47;;;;;;;;;;;;;;;;;;5004650;28;20045;-86
2023/02/08 09:06:19;;;;;;;13.45;6.70;;;;;;;;;;5003092;28;19929;-82
2023/02/08 09:08:47;;;;;;;;;;;;;;;;;;4997702;28;20537;-84
2023/02/08 09:11:16;;;;;;;13.60;7.00;;;;;;;;;;5007229;28;19929;-84
2023/02/08 09:13:51;;;;;;;14.93;8.30;;;;;;;;;;5003343;28;20061;-84
2023/02/08 09:16:25;;;;;;;20.38;9.20;;;;;;;;;;4998817;28;20066;-85
2023/02/08 09:19:00;;;;;;;20.35;7.70;;;;;;;;;;4999389;28;20053;-87
2023/02/08 09:21:33;;;;;;;21.05;6.93;;;;;;;;;;5004030;28;20049;-84
2023/02/08 09:24:06;;;;;;;14.65;6.95;;;;;;;;;;5003955;28;20058;-85
2023/02/08 09:26:36;;;;;;;19.10;7.28;;;;;;;;;;5019933;28;20072;-84
2023/02/08 09:29:08;;;;;;;28.52;9.90;;;;;;;;;;4994122;28;20064;-83
2023/02/08 09:31:41;;;;;;;25.27;9.30;;;;;;;;;;5017455;28;20721;-85
2023/02/08 09:34:14;;;;;;;13.02;6.85;;;;;;;;;;5002003;28;20061;-83
2023/02/08 09:36:47;;;;;;;17.40;7.53;;;;;;;;;;5008171;28;20054;-82
2023/02/08 09:39:21;;;;;;;14.35;7.78;;;;;;;;;;5005130;28;20060;-83
2023/02/08 09:41:57;;;;;;;21.17;7.82;;;;;;;;;;5002619;28;20987;-83
2023/02/08 09:44:36;;;;;;;19.50;7.78;;;;;;;;;;5001675;28;20054;-83
2023/02/08 09:47:06;;;;;;;15.45;7.57;;;;;;;;;;5000220;28;20057;-85
2023/02/08 09:49:43;;;;;;;15.73;6.53;;;;;;;;;;5004141;28;20061;-84
2023/02/08 09:52:18;;;;;;;20.10;7.35;;;;;;;;;;5003629;28;20061;-83
2023/02/08 09:54:53;;;;;;;15.35;7.75;;;;;;;;;;5003681;28;20057;-83
2023/02/08 09:57:23;;;;;;;14.27;7.07;;;;;;;;;;5000209;28;20077;-83
2023/02/08 09:59:58;;;;;;;15.23;7.63;;;;;;;;;;4999400;28;20054;-82
2023/02/08 10:02:32;;;;;;;12.68;7.13;;;;;;;;;;5008698;28;20057;-83
2023/02/08 10:05:06;;;;;;;19.45;8.20;;;;;;;;;;5013243;28;20052;-82
2023/02/08 10:07:34;;;;;;;17.30;6.88;;;;;;;;;;5015247;28;20069;-85
2023/02/08 10:10:11;;;;;;;18.92;8.02;;;;;;;;;;5001371;28;20057;-85
2023/02/08 10:12:51;;;;;;;13.38;6.32;;;;;;;;;;5000055;28;20506;-84
2023/02/08 10:15:30;;;;;;;19.00;6.72;;;;;;;;;;4999918;28;20050;-82
2023/02/08 10:18:10;;;;;;;19.67;7.70;;;;;;;;;;5005924;28;20050;-84
2023/02/08 10:20:50;;;;;;;17.65;8.52;;;;;;;;;;5006244;28;20396;-83
2023/02/08 10:23:24;;;;;;;22.73;6.90;;;;;;;;;;5019536;28;20064;-82
2023/02/08 10:26:03;;;;;;;29.33;9.90;;;;;;;;;;5005867;28;20632;-82
2023/02/08 10:28:42;;;;;;;16.90;8.98;;;;;;;;;;4993946;28;20061;-85
2023/02/08 10:31:20;;;;;;;17.80;7.57;;;;;;;;;;4999045;28;20085;-83
2023/02/08 10:33:51;;;;;;;15.70;5.88;;;;;;;;;;5004388;28;20052;-83
2023/02/08 10:36:26;;;;;;;15.52;7.30;;;;;;;;;;4996980;28;20044;-83
2023/02/08 10:39:00;;;;;;;21.27;8.50;;;;;;;;;;5013727;28;20069;-83
2023/02/08 10:41:31;;;;;;;15.40;7.03;;;;;;;;;;5001665;28;20073;-82
2023/02/08 10:44:02;;;;;;;16.52;7.00;;;;;;;;;;5009407;28;20103;-84
2023/02/08 10:46:38;;;;;;;14.15;6.10;;;;;;;;;;4998010;28;20429;-84
2023/02/08 10:49:08;;;;;;;21.60;7.85;;;;;;;;;;4999674;28;20061;-82
2023/02/08 10:51:36;;;;;;;16.20;7.28;;;;;;;;;;5005457;28;20793;-82
2023/02/08 10:54:11;;;;;;;21.52;8.05;;;;;;;;;;5002066;28;20065;-82
2023/02/08 10:56:42;;;;;;;23.67;8.00;;;;;;;;;;4999817;28;20050;-82
2023/02/08 10:59:19;;;;;;;18.02;6.82;;;;;;;;;;5011952;28;20057;-83
2023/02/08 11:01:48;;;;;;;17.95;7.78;;;;;;;;;;5000597;28;20060;-82
2023/02/08 11:04:21;;;;;;;22.38;7.47;;;;;;;;;;5008435;28;20527;-82
2023/02/08 11:06:54;;;;;;;13.10;6.95;;;;;;;;;;5005868;28;20053;-84
2023/02/08 11:09:28;;;;;;;16.08;7.03;;;;;;;;;;5005266;28;20487;-84
2023/02/08 11:12:02;;;;;;;18.10;6.47;;;;;;;;;;5003455;28;20057;-84
2023/02/08 11:14:39;;;;;;;21.48;7.93;;;;;;;;;;4995600;28;20061;-84
2023/02/08 11:17:22;;;;;;;18.88;7.30;;;;;;;;;;4992446;28;20053;-84
2023/02/08 11:19:56;;;;;;;16.75;6.68;;;;;;;;;;4999050;28;20060;-85
2023/02/08 11:22:25;;;;;;;17.40;8.32;;;;;;;;;;5006373;28;20054;-83
2023/02/08 11:24:55;;;;;;;16.63;6.72;;;;;;;;;;5002098;28;20091;-83
2023/02/08 11:27:30;;;;;;;17.58;7.18;;;;;;;;;;5015306;28;20066;-83
2023/02/08 11:30:17;;;;;;;17.80;8.38;;;;;;;;;;4994555;28;20410;-83
2023/02/08 11:32:46;;;;;;;18.88;7.55;;;;;;;;;;5015573;28;20061;-83
2023/02/08 11:35:20;;;;;;;19.75;7.07;;;;;;;;;;4999885;28;20459;-84
2023/02/08 11:37:54;;;;;;;18.83;7.63;;;;;;;;;;5012662;28;20049;-84
2023/02/08 11:40:24;;;;;;;17.17;7.60;;;;;;;;;;4995333;28;21458;-85
2023/02/08 11:42:52;;;;;;;16.35;6.85;;;;;;;;;;4997492;28;20060;-84
2023/02/08 11:45:28;;;;;;;25.27;9.25;;;;;;;;;;4996789;28;20057;-85
2023/02/08 11:48:03;;;;;;;23.13;8.98;;;;;;;;;;5006653;28;20058;-84
2023/02/08 11:50:37;;;;;;;21.27;8.93;;;;;;;;;;4984398;28;20054;-83
2023/02/08 11:53:20;;;;;;;14.43;7.03;;;;;;;;;;4998819;28;20045;-85
2023/02/08 11:56:01;;;;;;;19.20;6.65;;;;;;;;;;4998274;28;20540;-84
2023/02/08 11:58:28;;;;;;;19.05;8.15;;;;;;;;;;5006511;28;20080;-84
2023/02/08 12:00:56;;;;;;;;;;;;;;;;;;5001548;28;20049;-84
2023/02/08 12:03:24;;;;;;;;;;;;;;;;;;4997354;28;19928;-84
2023/02/08 12:05:51;;;;;;;;;;;;;;;;;;5002533;28;19921;-84
2023/02/08 12:08:19;;;;;;;;;;;;;;;;;;4999483;28;19929;-84
2023/02/08 12:10:46;;;;;;;;;;;;;;;;;;4998989;28;19971;-84
2023/02/08 12:13:14;;;;;;;;;;;;;;;;;;4999140;28;19929;-85
2023/02/08 12:15:41;;;;;;;;;;;;;;;;;;5003068;28;19988;-85
2023/02/08 12:18:14;;;;;;;;;;;;;;;;;;5005880;28;20149;-84
2023/02/08 12:20:42;;;;;;;;;;;;;;;;;;4997037;28;19930;-85
2023/02/08 12:23:10;;;;;;;;;;;;;;;;;;4999992;28;21318;-85
2023/02/08 12:25:37;;;;;;;;;;;;;;;;;;4998738;28;19944;-84
2023/02/08 12:28:05;;;;;;;;;;;;;;;;;;5009331;28;20486;-85
2023/02/08 12:30:33;;;;;;;;;;;;;;;;;;5002726;28;21154;-86
2023/02/08 12:33:00;;;;;;;;;;;;;;;;;;5002838;28;19929;-84
2023/02/08 12:35:28;;;;;;;;;;;;;;;;;;4997314;28;19930;-84
2023/02/08 12:40:51;;;;;;;;;;;;;;;;;;5003751;28;19971;-85
2023/02/08 12:43:24;;;;;;;;;;;;;;;;;;5003618;28;19929;-85
2023/02/08 12:45:51;;;;;;;;;;;;;;;;;;4972228;28;19929;-85
2023/02/08 12:48:24;;;;;;;;;;;;;;;;;;5014927;28;19936;-85
2023/02/08 12:50:56;;;;;;;;;;;;;;;;;;5014268;28;20302;-86
2023/02/08 12:53:30;;;;;;;;;;;;;;;;;;5001864;28;19929;-84
2023/02/08 12:56:03;;;;;;;;;;;;;;;;;;4997803;28;19929;-84
2023/02/08 12:58:35;;;;;;;;;;;;;;;;;;5000495;28;19929;-84
2023/02/08 13:01:03;;;;;;;;;;;;;;;;;;5001134;28;19930;-85
2023/02/08 13:03:30;;;;;;;;;;;;;;;;;;5001284;28;19921;-84
2023/02/08 13:05:58;;;;;;;;;;;;;;;;;;4998395;28;19954;-85
2023/02/08 13:08:25;;;;;;;;;;;;;;;;;;4998062;28;19936;-85
2023/02/08 13:10:53;;;;;;;;;;;;;;;;;;4996764;28;19929;-85
2023/02/08 13:13:25;;;;;;;;;;;;;;;;;;4997593;28;20453;-84
2023/02/08 13:15:58;;;;;;;;;;;;;;;;;;4998561;28;19929;-84
2023/02/08 13:18:30;;;;;;;;;;;;;;;;;;5001656;28;19932;-82
2023/02/08 13:20:58;;;;;;;;;;;;;;;;;;5019459;28;19928;-84
2023/02/08 13:23:30;;;;;;;;;;;;;;;;;;5004958;28;19929;-83
2023/02/08 13:26:03;;;;;;;;;;;;;;;;;;5007501;28;19921;-83
2023/02/08 13:28:35;;;;;;;;;;;;;;;;;;5003957;28;19929;-85
2023/02/08 13:31:03;;;;;;;;;;;;;;;;;;5006640;28;19936;-83
2023/02/08 13:33:30;;;;;;;;;;;;;;;;;;5003740;28;21714;-84
2023/02/08 13:36:03;;;;;;;;;;;;;;;;;;5002662;28;20688;-83
2023/02/08 13:38:30;;;;;;;;;;;;;;;;;;5019787;28;20417;-83
2023/02/08 13:40:58;;;;;;;;;;;;;;;;;;5006869;28;19929;-83
2023/02/08 13:43:26;;;;;;;;;;;;;;;;;;5001281;28;19936;-84
2023/02/08 13:45:54;;;;;;;;;;;;;;;;;;4979336;28;19928;-83
2023/02/08 13:48:22;;;;;;;;;;;;;;;;;;5003863;28;20309;-83
2023/02/08 13:50:55;;;;;;;;;;;;;;;;;;5018327;28;20412;-84
2023/02/08 13:53:23;;;;;;;;;;;;;;;;;;5020245;28;19921;-83
2023/02/08 13:55:52;;;;;;;;;;;;;;;;;;5001151;28;19933;-84
2023/02/08 13:58:20;;;;;;;;;;;;;;;;;;5000264;28;19929;-83
2023/02/08 14:00:48;;;;;;;;;;;;;;;;;;5002152;28;19940;-85
2023/02/08 14:03:16;;;;;;;;;;;;;;;;;;5005267;28;19941;-83
2023/02/08 14:05:43;;;;;;;;;;;;;;;;;;5005475;28;20507;-84
2023/02/08 14:08:11;;;;;;;;;;;;;;;;;;5006039;28;20412;-85
2023/02/08 14:10:38;;;;;;;;;;;;;;;;;;5019477;28;19929;-84
2023/02/08 14:13:07;;;;;;;;;;;;;;;;;;5003968;28;19929;-86
2023/02/08 14:15:36;;;;;;;;;;;;;;;;;;5003505;28;19929;-84
2023/02/08 14:18:03;;;;;;;;;;;;;;;;;;5006372;28;19929;-82
2023/02/08 14:20:31;;;;;;;;;;;;;;;;;;4996769;28;20449;-83
2023/02/08 14:22:58;;;;;;;;;;;;;;;;;;4997761;28;19930;-83
2023/02/08 14:25:26;;;;;;;;;;;;;;;;;;5001160;28;19929;-83
2023/02/08 14:27:53;;;;;;;;;;;;;;;;;;5003469;28;19924;-84
2023/02/08 14:30:26;;;;;;;;;;;;;;;;;;4996857;28;20365;-84
2023/02/08 14:32:58;;;;;;;;;;;;;;;;;;5019272;28;19921;-84
2023/02/08 14:35:32;;;;;;;;;;;;;;;;;;5002213;28;20583;-86
2023/02/08 14:38:00;;;;;;;;;;;;;;;;;;5006391;28;19929;-86
2023/02/08 14:40:33;;;;;;;;;;;;;;;;;;5018184;28;19940;-85
2023/02/08 14:43:01;;;;;;;;;;;;;;;;;;5000542;28;20443;-83
2023/02/08 14:45:30;;;;;;;;;;;;;;;;;;4999339;28;19935;-84
2023/02/08 14:48:06;;;;;;;;;;;;;;;;;;4987314;28;19929;-83
2023/02/08 14:50:34;;;;;;;;;;;;;;;;;;5001589;28;19936;-83
2023/02/08 14:53:07;;;;;;;;;;;;;;;;;;5017624;28;20500;-84
2023/02/08 14:55:34;;;;;;;;;;;;;;;;;;5000762;28;19938;-84
2023/02/08 14:58:08;;;;;;;;;;;;;;;;;;5001489;28;19940;-84
2023/02/08 15:00:35;;;;;;;;;;;;;;;;;;5017552;28;19925;-84
2023/02/08 15:03:02;;;;;;;;;;;;;;;;;;5002359;28;19936;-84
2023/02/08 15:05:35;;;;;;;;;;;;;;;;;;5001241;28;19934;-84
2023/02/08 15:08:03;;;;;;;;;;;;;;;;;;5001029;28;20697;-84
2023/02/08 15:10:30;;;;;;;;;;;;;;;;;;5008157;28;21766;-84
2023/02/08 15:12:59;;;;;;;;;;;;;;;;;;5003091;28;19929;-83
2023/02/08 15:15:27;;;;;;;;;;;;;;;;;;4995049;28;19930;-84
2023/02/08 15:17:59;;;;;;;;;;;;;;;;;;4998519;28;19936;-85
2023/02/08 15:20:27;;;;;;;;;;;;;;;;;;5003423;28;19929;-84
2023/02/08 15:22:54;;;;;;;;;;;;;;;;;;4991002;28;19940;-84
2023/02/08 15:25:22;;;;;;;;;;;;;;;;;;4992982;28;19929;-83
2023/02/08 15:27:49;;;;;;;;;;;;;;;;;;5006821;28;19921;-84
2023/02/08 15:30:17;;;;;;;;;;;;;;;;;;5012440;28;20305;-83
2023/02/08 15:32:44;;;;;;;;;;;;;;;;;;4997335;28;20212;-84
2023/02/08 15:35:17;;;;;;;;;;;;;;;;;;5016334;28;19930;-84
2023/02/08 15:37:49;;;;;;;;;;;;;;;;;;4999880;28;19936;-84
2023/02/08 15:40:17;;;;;;;;;;;;;;;;;;5001325;28;19936;-84
2023/02/08 15:42:44;;;;;;;;;;;;;;;;;;5002127;28;19929;-83
2023/02/08 15:45:12;;;;;;;;;;;;;;;;;;4999093;28;19930;-84
2023/02/08 15:47:40;;;;;;;;;;;;;;;;;;4979389;28;19936;-85
2023/02/08 15:50:08;;;;;;;;;;;;;;;;;;4996068;28;21369;-84
2023/02/08 15:52:36;;;;;;;;;;;;;;;;;;5003552;28;19936;-83
2023/02/08 15:55:03;;;;;;;;;;;;;;;;;;4995613;28;19936;-85
2023/02/08 15:57:31;;;;;;;;;;;;;;;;;;4994961;28;19921;-84
2023/02/08 16:00:03;;;;;;;;;;;;;;;;;;4997588;28;19940;-85
2023/02/08 16:02:32;;;;;;;;;;;;;;;;;;5002479;28;20502;-84
2023/02/08 16:05:05;;;;;;;;;;;;;;;;;;4997423;28;19952;-84
2023/02/08 16:07:32;;;;;;;;;;;;;;;;;;5005497;28;19929;-84
2023/02/08 16:10:05;;;;;;;;;;;;;;;;;;4996144;28;19929;-84
2023/02/08 16:12:37;;;;;;;;;;;;;;;;;;4994091;28;19929;-84
2023/02/08 16:15:05;;;;;;;;;;;;;;;;;;4997950;28;19936;-84